Cedar City, UT (84720)

3:06 PM MDT on September 01, 2014 (GMT -0600)
NR7E | Change Station
CLOSE
Current Station
Personal Weather Station
Location: Cedar City, UT
Elevation: 5474 ft
Nearby Weather Stations

Elev 5474 ft 37.77 °N, 113.10 °W | Updated 12 seconds ago

Clear
Clear
85.8 °F
Feels Like 83 °F
N
2.9
Wind Variable Wind from SW
Gusts 3.0 mph

Today
High -- | Low -- °F
--% Chance of Precip.
Yesterday
High -- | Low -- °F
Precip. -- in
7:02 AM 8:01 PM
Waxing Crescent, 44% visible
Pressure 29.85 in
Visibility 10.0 miles
Clouds Clear
Heat Index 83 °F
Dew Point 36 °F
Humidity 17%
Rainfall 0.00 in
Snow Depth 3 in
UV 10 out of 12
Pollen 7.40 out of 12
Air Quality Not available.
Flu Activity Not available.
METAR KCDC 012053Z AUTO VRB06KT 10SM CLR 29/00 A3008 RMK AO2 SLP108 T02940000 58012

More Conditions Fewer Conditions

Pressure 29.85 in
Visibility 10.0 miles
Clouds Clear
Heat Index 83 °F
Dew Point 36 °F
Humidity 17%
Rainfall 0.00 in
Snow Depth 3 in
UV 10 out of 12
Pollen 7.40 out of 12
Air Quality Not available.
Flu Activity Not available.
METAR KCDC 012053Z AUTO VRB06KT 10SM CLR 29/00 A3008 RMK AO2 SLP108 T02940000 58012

More Conditions Fewer Conditions

10-Day Weather Forecast

Almanac

Astronomy

Sep. 01, 2014 Rise Set
Actual Time 7:02 AM MDT 8:01 PM MDT
Civil Twilight 6:35 AM MDT 8:28 PM MDT
Nautical Twilight 6:03 AM MDT 9:00 PM MDT
Astronomical Twilight 5:30 AM MDT 9:33 PM MDT
Moon 1:44 PM MDT No Moon Set
Length of Visible Light 13h 52m
Length of Day
12h 58m
Tomorrow will be 2m 20s shorter.
Waxing Crescent, 44% of the Moon is Illuminated
Today
Waxing Crescent
Sep 2
First Quarter
Sep 8
Full
Sep 15
Last Quarter
Sep 24
New

Today's Extremes

State Highs State Lows

Community

WunderPhotos

Upload Photos

1,749,407 photos uploaded!

WunderBlogs® & News

Nearby

Snow Depth

Station Depth Elevation
Midway Valley 3 in 9800 ft
Long Valley Jct 0 in 7360 ft
Agua Canyon 3 in 8900 ft
Clayton Springs 0 in 10000 ft
Box Creek 0 in 9800 ft

Earthquake Activity

City Distance Mag. Time & Date
No recent earthquake activity has been reported nearby.
Minimum magnitude displayed is 2.5.

Coastal Water Temperatures

Place Temperature
No Stations Reporting

Nearby Weather Stations